地図

経路データ

SID SEASON NUMBER BASIN SUBBASIN NAME ISO_TIME NATURE LAT LON WMO_WIND WMO_PRES WMO_AGENCY TRACK_TYPE DIST2LAND LANDFALL IFLAG USA_AGENCY USA_ATCF_ID USA_LAT USA_LON USA_RECORD USA_STATUS USA_WIND USA_PRES USA_SSHS USA_R34_NE USA_R34_SE USA_R34_SW USA_R34_NW USA_R50_NE USA_R50_SE USA_R50_SW USA_R50_NW USA_R64_NE USA_R64_SE USA_R64_SW USA_R64_NW USA_POCI USA_ROCI USA_RMW USA_EYE TOKYO_LAT TOKYO_LON TOKYO_GRADE TOKYO_WIND TOKYO_PRES TOKYO_R50_DIR TOKYO_R50_LONG TOKYO_R50_SHORT TOKYO_R30_DIR TOKYO_R30_LONG TOKYO_R30_SHORT TOKYO_LAND CMA_LAT CMA_LON CMA_CAT CMA_WIND CMA_PRES HKO_LAT HKO_LON HKO_CAT HKO_WIND HKO_PRES NEWDELHI_LAT NEWDELHI_LON NEWDELHI_GRADE NEWDELHI_WIND NEWDELHI_PRES NEWDELHI_CI NEWDELHI_DP NEWDELHI_POCI REUNION_LAT REUNION_LON REUNION_TYPE REUNION_WIND REUNION_PRES REUNION_TNUM REUNION_CI REUNION_RMW REUNION_R34_NE REUNION_R34_SE REUNION_R34_SW REUNION_R34_NW REUNION_R50_NE REUNION_R50_SE REUNION_R50_SW REUNION_R50_NW REUNION_R64_NE REUNION_R64_SE REUNION_R64_SW REUNION_R64_NW BOM_LAT BOM_LON BOM_TYPE BOM_WIND BOM_PRES BOM_TNUM BOM_CI BOM_RMW BOM_R34_NE BOM_R34_SE BOM_R34_SW BOM_R34_NW BOM_R50_NE BOM_R50_SE BOM_R50_SW BOM_R50_NW BOM_R64_NE BOM_R64_SE BOM_R64_SW BOM_R64_NW BOM_ROCI BOM_POCI BOM_EYE BOM_POS_METHOD BOM_PRES_METHOD NADI_LAT NADI_LON NADI_CAT NADI_WIND NADI_PRES WELLINGTON_LAT WELLINGTON_LON WELLINGTON_WIND WELLINGTON_PRES DS824_LAT DS824_LON DS824_STAGE DS824_WIND DS824_PRES TD9636_LAT TD9636_LON TD9636_STAGE TD9636_WIND TD9636_PRES TD9635_LAT TD9635_LON TD9635_WIND TD9635_PRES TD9635_ROCI NEUMANN_LAT NEUMANN_LON NEUMANN_CLASS NEUMANN_WIND NEUMANN_PRES MLC_LAT MLC_LON MLC_CLASS MLC_WIND MLC_PRES USA_GUST BOM_GUST BOM_GUST_PER REUNION_GUST REUNION_GUST_PER USA_SEAHGT USA_SEARAD_NE USA_SEARAD_SE USA_SEARAD_SW USA_SEARAD_NW STORM_SPEED STORM_DIR
1968051S13139 1968 17 SP EA BERTHA:BONNIE 1968-02-19 23:00:00 NR -12.8500 139.100 1005 bom main 234 234 ______O___O___ -1 -13.0000 139.000 1005 -12.7000 139.200 1 2 283
1968051S13139 1968 17 SP EA BERTHA:BONNIE 1968-02-20 00:00:00 TS -12.8409 139.062 main 234 206 O_____P___P_O_ jtwc_sh SH271968 -12.7000 139.100 -1 -13.0169 138.912 -12.7262 139.106 1 -13.0000 139.200 TC 20 1005 5 258
1968051S13139 1968 17 SP EA BERTHA:BONNIE 1968-02-20 03:00:00 TS -12.9158 138.790 main 206 180 P_____P___P_P_ SH271968 -12.8126 138.790 -1 -13.0670 138.648 -12.8042 138.826 1 -13.0625 138.950 TC 20 1004 6 257
1968051S13139 1968 17 SP EA BERTHA:BONNIE 1968-02-20 06:00:00 TS -12.9713 138.480 main 180 152 O_____P__OP_O_ jtwc_sh SH271968 -12.9000 138.500 -1 -13.1153 138.387 -12.8000 137.800 TC 30 1001 -12.8804 138.548 1 -13.1000 138.700 TC 20 1004 6 261
1968051S13139 1968 17 SP EA BERTHA:BONNIE 1968-02-20 09:00:00 TS -13.0085 138.207 main 152 133 P_____P__PP_P_ SH271968 -12.9500 138.242 -1 -13.1606 138.129 -12.8650 137.593 TC 30 1000 -12.9535 138.277 1 -13.1000 138.450 TC 20 1004 5 263
1968051S13139 1968 17 SP EA BERTHA:BONNIE 1968-02-20 11:00:00 TS -13.0289 138.018 main 133 125 P_____P__PO_P_ SH271968 -12.9802 138.081 -1 -13.1886 137.961 -12.8935 137.462 TC 30 1000 -13.0000 138.100 1 -13.0969 138.283 TC 20 1004 6 264
1968051S13139 1968 17 SP EA BERTHA:BONNIE 1968-02-20 12:00:00 TS -13.0374 137.915 main 125 108 O_____P__OP_O_ jtwc_sh SH271968 -13.0000 138.000 -1 -13.2017 137.878 -12.9000 137.400 TC 30 1000 -13.0224 138.013 1 -13.1000 138.200 TC 20 1004 5 259
1968051S13139 1968 17 SP EA BERTHA:BONNIE 1968-02-20 15:00:00 TS -13.0934 137.680 main 108 87 P_____P__PP_P_ SH271968 -13.1075 137.750 -1 -13.2375 137.634 -12.8800 137.235 TC 30 1000 -13.0853 137.759 1 -13.1425 137.950 TC 20 1004 5 258
1968051S13139 1968 17 SP EA BERTHA:BONNIE 1968-02-20 18:00:00 TS -13.1343 137.452 main 87 55 O_____P__OP_O_ jtwc_sh SH271968 -13.2000 137.500 -1 -13.2668 137.399 -12.8000 137.100 TC 30 1000 -13.1391 137.510 1 -13.2000 137.700 TC 20 1004 4 265
1968051S13139 1968 17 SP EA BERTHA:BONNIE 1968-02-20 21:00:00 TS -13.1344 137.232 main 55 44 P_____P__PP_P_ SH271968 -13.2150 137.250 -1 -13.2885 137.176 -12.6500 137.008 TC 30 1000 -13.1806 137.264 1 -13.2575 137.443 TC 20 1004 4 272
1968051S13139 1968 17 SP EA BERTHA:BONNIE 1968-02-20 23:00:00 TS -13.1236 137.087 main 44 44 P_____P__PO_P_ SH271968 -13.2052 137.083 -1 -13.2982 137.034 -12.5438 136.942 TC 30 1000 -13.2000 137.100 1 -13.2890 137.278 TC 20 1004 4 274
1968051S13139 1968 17 SP EA BERTHA:BONNIE 1968-02-20 23:30:00 TS -13.1207 137.050 1004 bom main 44 34 P_____O__PP_P_ SH271968 -13.2025 137.042 -1 -13.3000 137.000 1004 -12.5207 136.922 TC 30 1000 -13.2036 137.058 1 -13.2950 137.238 TC 20 1004 4 269
1968051S13139 1968 17 SP EA BERTHA:BONNIE 1968-02-21 00:00:00 TS -13.1253 137.013 main 34 15 O_____P__OP_O_ jtwc_sh SH271968 -13.2000 137.000 -1 -13.3015 136.966 1004 -12.5000 136.900 TC 30 1001 -13.2067 137.017 1 -13.3000 137.200 TC 20 1004 4 270
1968051S13139 1968 17 SP EA BERTHA:BONNIE 1968-02-21 03:00:00 TS -13.1198 136.786 main 15 0 P_____P__PP_P_ SH271968 -13.2000 136.750 -1 -13.3058 136.766 1004 -12.4050 136.707 TC 30 1001 -13.2157 136.767 1 -13.3074 137.000 TC 20 1004 4 270
1968051S13139 1968 17 SP EA BERTHA:BONNIE 1968-02-21 06:00:00 TS -13.1230 136.554 main 0 0 O_____P__OP_O_ jtwc_sh SH271968 -13.2000 136.500 -1 -13.3047 136.558 1004 -12.4000 136.500 TC 30 1001 -13.2131 136.517 1 -13.3000 136.800 TC 20 1004 5 267
1968051S13139 1968 17 SP EA BERTHA:BONNIE 1968-02-21 09:00:00 TS -13.1434 136.319 main 0 0 P_____P__PP_P_ SH271968 -13.2000 136.250 -1 -13.3016 136.326 1004 -12.5200 136.343 TC 27 1001 -13.2052 136.267 1 -13.2925 136.557 TC 20 1004 5 264
1968051S13139 1968 17 SP EA BERTHA:BONNIE 1968-02-21 11:00:00 TS -13.1610 136.161 main 0 0 P_____P__PO_P_ SH271968 -13.2000 136.083 -1 -13.3001 136.148 1004 -12.6395 136.247 TC 25 1001 -13.2000 136.100 2 -13.2943 136.386 TC 20 1004 5 263
1968051S13139 1968 17 SP EA BERTHA:BONNIE 1968-02-21 11:30:00 TS -13.1661 136.121 1004 bom main 10 10 P_____O__PP_P_ SH271968 -13.2000 136.042 -1 -13.3000 136.100 1004 -12.6701 136.224 TC 25 1001 -13.1994 136.061 2 -13.2966 136.343 TC 20 1004 5 263
1968051S13139 1968 17 SP EA BERTHA:BONNIE 1968-02-21 12:00:00 TS -13.1712 136.082 main 10 10 O_____P__OP_O_ jtwc_sh SH271968 -13.2000 136.000 -1 -13.2997 136.050 1004 -12.7000 136.200 TC 25 1002 -13.1987 136.022 2 -13.3000 136.300 TC 20 1004 5 263
1968051S13139 1968 17 SP EA BERTHA:BONNIE 1968-02-21 12:30:00 TS -13.1757 136.042 1004 bom main 0 0 P_____O__PP_P_ SH271968 -13.2000 135.958 -1 -13.3000 136.000 1004 -12.7225 136.176 TC 25 1002 -13.1980 135.983 2 -13.3050 136.260 TC 20 1004 5 262
1968051S13139 1968 17 SP EA BERTHA:BONNIE 1968-02-21 15:00:00 TS -13.2029 135.849 main 0 0 P_____P__PP_P_ SH271968 -13.2000 135.750 -1 -13.3171 135.767 1004 -12.8350 136.057 TC 25 1002 -13.1943 135.788 2 -13.3425 136.058 TC 22 1004 5 260
1968051S13139 1968 17 SP EA BERTHA:BONNIE 1968-02-21 18:00:00 TS -13.2479 135.613 main 0 0 O_____P__OP_O_ jtwc_sh SH271968 -13.2000 135.500 -1 -13.3663 135.506 1004 -13.0000 135.900 TC 25 1002 -13.1917 135.548 2 -13.4000 135.800 TC 25 1004 5 257
1968051S13139 1968 17 SP EA BERTHA:BONNIE 1968-02-21 21:00:00 TS -13.3080 135.369 main 0 0 P_____P__PP_P_ SH271968 -13.1999 135.265 -1 -13.4355 135.241 1004 -13.2425 135.722 TC 25 1002 -13.1941 135.289 2 -13.4500 135.515 TC 22 1004 5 256
1968051S13139 1968 17 SP EA BERTHA:BONNIE 1968-02-21 23:00:00 TS -13.3521 135.190 main 0 0 P_____P__PO_P_ SH271968 -13.2000 135.095 -1 -13.4870 135.051 1004 -13.4171 135.581 TC 25 1002 -13.2000 135.100 1 -13.4833 135.308 TC 20 1004 5 256
1968051S13139 1968 17 SP EA BERTHA:BONNIE 1968-02-21 23:30:00 TS -13.3628 135.142 1005 bom main 0 0 P_____O__PP_P_ SH271968 -13.2000 135.048 -1 -13.5000 135.000 1005 -13.4592 135.541 TC 25 1002 -13.2000 135.049 1 -13.4917 135.255 TC 20 1004 6 258
1968051S13139 1968 17 SP EA BERTHA:BONNIE 1968-02-22 00:00:00 TS -13.3730 135.092 main 0 0 O_____P__OP_O_ jtwc_sh SH271968 -13.2000 135.000 -1 -13.5110 134.945 1005 -13.5000 135.500 TC 25 1003 -13.2001 134.998 1 -13.5000 135.200 TC 20 1005 6 260
1968051S13139 1968 17 SI WA BERTHA:BONNIE 1968-02-22 03:00:00 TS -13.4267 134.775 main 0 0 P_____P__PP_P_ SH271968 -13.1925 134.665 -1 -13.5810 134.595 1005 -13.7069 135.312 TC 25 1003 -13.2037 134.670 1 -13.5425 134.857 TC 20 1005 7 260
1968051S13139 1968 17 SI WA BERTHA:BONNIE 1968-02-22 06:00:00 TS -13.4884 134.403 main 0 0 O_____P__OP_O_ jtwc_sh SH271968 -13.2000 134.300 -1 -13.6564 134.218 1005 -13.9000 134.900 TC 25 1003 -13.2198 134.318 1 -13.6000 134.500 TC 20 1005 8 260
1968051S13139 1968 17 SI WA BERTHA:BONNIE 1968-02-22 09:00:00 TS -13.5735 133.961 main 0 0 P_____P__PP_P_ SH271968 -13.2274 133.957 -1 -13.7346 133.827 1005 -14.1462 133.981 TC 22 1003 -13.2578 133.949 1 -13.6999 134.158 TC 20 1005 9 259
1968051S13139 1968 17 SI WA BERTHA:BONNIE 1968-02-22 11:00:00 TS -13.6339 133.652 main 0 0 P_____P__PO_P_ SH271968 -13.2692 133.722 -1 -13.7870 133.565 1005 -14.2682 133.300 TC 20 1003 -13.3000 133.700 1 -13.7697 133.922 TC 20 1005 9 259
1968051S13139 1968 17 SI WA BERTHA:BONNIE 1968-02-22 11:30:00 TS -13.6491 133.576 1005 bom main 0 0 P_____O__PP_P_ SH271968 -13.2837 133.662 -1 -13.8000 133.500 1005 -14.2871 133.144 TC 20 1003 -13.3166 133.636 1 -13.7854 133.862 TC 20 1005 9 259
1968051S13139 1968 17 SI WA BERTHA:BONNIE 1968-02-22 12:00:00 TS -13.6640 133.500 main 0 0 O_____P__OP_O_ jtwc_sh SH271968 -13.3000 133.600 -1 -13.8137 133.432 1005 -14.3000 133.000 TC 20 1004 -13.3344 133.571 1 -13.8000 133.800 TC 20 1005 9 259
1968051S13139 1968 17 SI WA BERTHA:BONNIE 1968-02-22 15:00:00 TS -13.7450 133.069 main 0 0 P_____P__PP_P_ SH271968 -13.4425 133.200 -1 -13.8972 133.015 1005 -14.2370 132.410 TC 20 1004 -13.4624 133.176 1 -13.8500 133.400 TC 20 1005 8 259
1968051S13139 1968 17 SI WA BERTHA:BONNIE 1968-02-22 18:00:00 TS -13.8213 132.667 main 0 0 O_____P__OP_O_ jtwc_sh SH271968 -13.6000 132.800 -1 -13.9784 132.610 1005 -14.1000 132.000 TC 20 1004 -13.6052 132.784 1 -13.9000 133.000 TC 20 1005 8 258
1968051S13139 1968 17 SI WA BERTHA:BONNIE 1968-02-22 21:00:00 TS -13.9007 132.290 main 0 0 P_____P__PP_P_ SH271968 -13.7225 132.420 -1 -14.0508 132.247 1005 -14.0274 131.605 TC 20 1004 -13.7348 132.419 1 -14.0075 132.613 TC 20 1005 7 258
1968051S13139 1968 17 SI WA BERTHA:BONNIE 1968-02-22 23:00:00 TS -13.9446 132.073 main 0 0 P_____P__PO_P_ SH271968 -13.7807 132.197 -1 -14.0912 132.044 1005 -14.0026 131.392 TC 20 1004 -13.8000 132.200 1 -14.0755 132.391 TC 20 1005 6 259
1968051S13139 1968 17 SI WA BERTHA:BONNIE 1968-02-22 23:30:00 TS -13.9530 132.026 1005 bom main 0 0 P_____O__PP_P_ SH271968 -13.7913 132.147 -1 -14.1000 132.000 1005 -14.0004 131.345 TC 20 1004 -13.8084 132.153 1 -14.0888 132.344 TC 20 1005 5 260
1968051S13139 1968 17 SI WA BERTHA:BONNIE 1968-02-23 00:00:00 TS -13.9603 131.981 main 0 0 O_____P__OP_O_ jtwc_sh SH271968 -13.8000 132.100 -1 -14.1065 131.962 1004 -14.0000 131.300 TC 20 1004 -13.8154 132.107 1 -14.1000 132.300 TC 20 1005 4 263
1968051S13139 1968 17 SI WA BERTHA:BONNIE 1968-02-23 03:00:00 TS -13.9816 131.774 main 0 0 P_____P__PP_P_ SH271968 -13.8149 131.885 -1 -14.1345 131.787 1004 -14.0349 131.070 TC 22 1003 -13.8336 131.863 1 -14.1074 132.120 TC 22 1004 4 265
1968051S13139 1968 17 SI WA BERTHA:BONNIE 1968-02-23 06:00:00 TS -13.9895 131.616 main 0 0 O_____P__OP_O_ jtwc_sh SH271968 -13.8000 131.700 -1 -14.1523 131.674 1004 -14.1000 130.900 TC 25 1002 -13.8247 131.651 1 -14.1000 132.000 TC 25 1004 3 265
1968051S13139 1968 17 SI WA BERTHA:BONNIE 1968-02-23 09:00:00 TS -14.0069 131.447 main 0 0 P_____P__PP_P_ SH271968 -13.8000 131.458 -1 -14.1725 131.584 1004 -14.1575 130.735 TC 25 1002 -13.8072 131.446 1 -14.1425 131.850 TC 25 1004 3 263
1968051S13139 1968 17 SI WA BERTHA:BONNIE 1968-02-23 11:00:00 TS -14.0215 131.331 main 0 0 P_____P__PO_P_ SH271968 -13.8000 131.286 -1 -14.1933 131.519 1004 -14.1890 130.642 TC 25 1002 -13.8000 131.300 1 -14.1807 131.750 TC 25 1004 3 263
1968051S13139 1968 17 SI WA BERTHA:BONNIE 1968-02-23 11:30:00 TS -14.0252 131.301 1004 bom main 0 0 P_____O__PP_P_ SH271968 -13.8000 131.243 -1 -14.2000 131.500 1004 -14.1950 130.620 TC 25 1002 -13.7977 131.257 1 -14.1904 131.725 TC 25 1004 4 262
1968051S13139 1968 17 SI WA BERTHA:BONNIE 1968-02-23 12:00:00 TS -14.0292 131.269 main 0 0 O_____P__OP_O_ jtwc_sh SH271968 -13.8000 131.200 -1 -14.2095 131.472 1003 -14.2000 130.600 TC 25 1002 -13.7951 131.214 1 -14.2000 131.700 TC 25 1004 4 263
1968051S13139 1968 17 SI WA BERTHA:BONNIE 1968-02-23 15:00:00 TS -14.0523 131.075 main 0 0 P_____P__PP_P_ SH271968 -13.7925 130.957 -1 -14.2771 131.292 1003 -14.2150 130.493 TC 25 1002 -13.7820 130.943 1 -14.2425 131.557 TC 25 1003 4 262
1968051S13139 1968 17 SI WA BERTHA:BONNIE 1968-02-23 18:00:00 TS -14.0838 130.872 main 0 0 O_____P__OP_O_ jtwc_sh SH271968 -13.8000 130.700 -1 -14.3562 131.104 1002 -14.2000 130.400 TC 25 1003 -13.7880 130.663 1 -14.3000 131.400 TC 25 1003 4 259
1968051S13139 1968 17 SI WA BERTHA:BONNIE 1968-02-23 21:00:00 TS -14.1299 130.649 main 0 0 P_____P__PP_P_ SH271968 -13.8200 130.400 -1 -14.4374 130.926 1002 -14.1725 130.292 TC 25 1003 -13.8350 130.383 1 -14.4000 131.185 TC 27 1002 4 256
1968051S13139 1968 17 SI WA BERTHA:BONNIE 1968-02-23 23:00:00 TS -14.1702 130.506 main 0 0 P_____P__PO_P_ SH271968 -13.8636 130.197 -1 -14.4881 130.823 1002 -14.1307 130.228 TC 25 1003 -13.9000 130.200 1 -14.4698 131.052 TC 29 1002 4 253
1968051S13139 1968 17 SI WA BERTHA:BONNIE 1968-02-23 23:30:00 TS -14.1815 130.473 1002 bom main 0 0 P_____O__PP_P_ SH271968 -13.8804 130.148 -1 -14.5000 130.800 1002 -14.1163 130.213 TC 25 1003 -13.9201 130.156 1 -14.4855 131.025 TC 29 1002 4 246
1968051S13139 1968 17 SI WA BERTHA:BONNIE 1968-02-24 00:00:00 TS -14.1932 130.442 main 0 0 O_____P__OP_O_ jtwc_sh SH271968 -13.9000 130.100 -1 -14.5107 130.781 1001 -14.1000 130.200 TC 25 1003 -13.9420 130.112 1 -14.5000 131.000 TC 30 1002 3 245
1968051S13139 1968 17 SI WA BERTHA:BONNIE 1968-02-24 03:00:00 TS -14.2677 130.287 main 0 0 P_____P__PP_P_ SH271968 -14.0625 129.842 -1 -14.5706 130.691 1001 -13.9500 130.143 TC 25 1002 -14.1095 129.853 1 -14.5575 130.935 TC 30 1001 3 238
1968051S13139 1968 17 SI WA BERTHA:BONNIE 1968-02-24 06:00:00 TS -14.3672 130.152 main 0 0 O_____P__OP_O_ jtwc_sh SH271968 -14.3000 129.600 -1 -14.6231 130.625 1000 -13.8000 130.100 TC 25 1002 -14.3322 129.602 1 -14.6000 130.900 TC 30 1000 4 230
1968051S13139 1968 17 SI WA BERTHA:BONNIE 1968-02-24 09:00:00 TS -14.5010 130.002 main 0 0 P_____P__PP_P_ SH271968 -14.5775 129.342 -1 -14.6682 130.562 999 -13.7650 130.027 TC 25 1002 -14.6004 129.358 1 -14.6575 130.808 TC 32 999 4 226
1968051S13139 1968 17 SI WA BERTHA:BONNIE 1968-02-24 11:00:00 TS -14.5976 129.904 main 0 0 P_____P__PO_P_ SH271968 -14.7890 129.178 -1 -14.6940 130.514 999 -13.7343 130.000 TC 25 1002 -14.8000 129.200 1 -14.6890 130.736 TC 34 999 4 224
1968051S13139 1968 17 SI WA BERTHA:BONNIE 1968-02-24 11:30:00 TS -14.6213 129.881 999 bom main 0 0 P_____O__PP_P_ SH271968 -14.8442 129.138 -1 -14.7000 130.500 999 -13.7193 129.998 TC 25 1002 -14.8521 129.161 1 -14.6950 130.718 TC 34 999 2 0
1968051S13139 1968 17 SI WA BERTHA:BONNIE 1968-02-24 12:00:00 TS -14.6246 129.916 main 0 0 O_____P__OP_O_ jtwc_sh SH271968 -14.9000 129.100 -1 -14.7048 130.483 998 -13.7000 130.000 TC 25 1002 -14.9050 129.122 1 -14.7000 130.700 TC 35 999 1 0
1968051S13139 1968 17 SI WA BERTHA:BONNIE 1968-02-24 15:00:00 TS -14.6781 129.870 main 0 0 P_____P__PP_P_ SH271968 -15.2450 128.890 -1 -14.7273 130.374 998 -13.4350 130.063 TC 27 1001 -15.2371 128.893 1 -14.7000 130.607 TC 35 998 0 0
1968051S13139 1968 17 SI WA BERTHA:BONNIE 1968-02-24 18:00:00 TS -14.6438 129.919 main 0 0 O_____P__OP_O_ jtwc_sh SH271968 -15.6000 128.700 -1 -14.7457 130.251 997 -13.2000 130.200 TC 30 1001 -15.5893 128.669 1 -14.7000 130.500 TC 35 998 2 53
1968051S13139 1968 17 SI WA BERTHA:BONNIE 1968-02-24 21:00:00 TS -14.5413 130.056 main 0 0 ______P__PP_P_ SH271968 -1 -14.7694 130.117 997 -13.1826 130.415 TC 30 1001 -15.9538 128.447 1 -14.7425 130.358 TC 37 997 3 53
1968051S13139 1968 17 SI WA BERTHA:BONNIE 1968-02-24 23:00:00 TS -14.5083 130.106 main 0 0 ______P__PO_P_ SH271968 -1 -14.7928 130.024 997 -13.2505 130.551 TC 30 1001 -16.2000 128.300 1 -14.7807 130.253 TC 39 997 5 49
1968051S13139 1968 17 SI WA BERTHA:BONNIE 1968-02-24 23:30:00 TS -14.4144 130.207 997 bom main 0 0 ______O__P__P_ SH271968 -1 -14.8000 130.000 997 4 -13.2742 130.578 TC 30 1001 1 -14.7904 130.226 TC 39 997 7 47
1968051S13139 1968 17 SI WA BERTHA:BONNIE 1968-02-25 00:00:00 TS -14.4271 130.194 main 0 0 ______P__O__O_ -1 -14.8083 129.976 997 -13.3000 130.600 TC 30 1001 1 -14.8000 130.200 TC 40 997 3 227
1968051S13139 1968 17 SI WA BERTHA:BONNIE 1968-02-25 03:00:00 TS -14.5185 130.088 main 0 0 ______P__P__P_ -1 -14.8675 129.823 997 -13.5075 130.630 TC 30 1000 1 -14.8425 130.050 TC 40 997 3 229
1968051S13139 1968 17 SI WA BERTHA:BONNIE 1968-02-25 06:00:00 TS -14.6170 129.965 main 0 0 ______P__O__O_ -1 -14.9405 129.667 997 -13.7000 130.600 TC 30 1000 1 -14.9000 129.900 TC 40 997 3 234
1968051S13139 1968 17 SI WA BERTHA:BONNIE 1968-02-25 09:00:00 TS -14.6854 129.853 main 0 0 ______P__P__P_ -1 -15.0243 129.515 997 -13.7150 130.615 TC 30 1000 1 -14.9925 129.743 TC 40 997 3 237
1968051S13139 1968 17 SI WA BERTHA:BONNIE 1968-02-25 11:30:00 TS -14.7412 129.763 997 bom main 0 0 ______O__P__P_ -1 -15.1000 129.400 997 -13.6982 130.607 TC 30 1000 -15.0821 129.622 TC 40 997 2 237
1968051S13139 1968 17 SI WA BERTHA:BONNIE 1968-02-25 12:00:00 TS -14.7532 129.745 main 0 0 ______P__O__O_ -1 -15.1129 129.380 997 -13.7000 130.600 TC 30 1001 -15.1000 129.600 TC 40 997 3 228
1968051S13139 1968 17 SI WA BERTHA:BONNIE 1968-02-25 15:00:00 TS -14.8406 129.646 main 10 10 ______P__P__P_ -1 -15.1929 129.274 997 -13.7850 130.530 TC 30 1001 -15.2000 129.492 TC 40 997 3 226
1968051S13139 1968 17 SI WA BERTHA:BONNIE 1968-02-25 18:00:00 TS -14.9401 129.542 main 11 0 ______P__O__O_ -1 -15.2832 129.179 998 -13.9000 130.400 TC 30 1001 -15.3000 129.400 TC 40 997 3 227
1968051S13139 1968 17 SI WA BERTHA:BONNIE 1968-02-25 21:00:00 TS -15.0356 129.424 main 0 0 ______P__P__P_ -1 -15.3912 129.085 998 -13.9775 130.215 TC 30 1001 -15.3925 129.300 TC 37 997 3 228
1968051S13139 1968 17 SI WA BERTHA:BONNIE 1968-02-25 23:30:00 TS -15.1331 129.317 999 bom main 0 0 ______O__P__P_ -1 -15.5000 129.000 999 -14.0733 130.036 TC 30 1001 -15.4800 129.217 TC 35 997 3 226
1968051S13139 1968 17 SI WA BERTHA:BONNIE 1968-02-26 00:00:00 TS -15.1562 129.295 main 0 0 ______P__O__O_ -1 -15.5248 128.980 999 -14.1000 130.000 TC 30 1001 -15.5000 129.200 TC 35 998 4 217
1968051S13139 1968 17 SI WA BERTHA:BONNIE 1968-02-26 03:00:00 TS -15.3241 129.166 main 0 0 ______P__P__P_ -1 -15.6907 128.853 999 -14.3350 129.808 TC 30 1000 -15.6350 129.107 TC 35 998 4 216
1968051S13139 1968 17 SI WA BERTHA:BONNIE 1968-02-26 06:00:00 TS -15.5161 129.026 main 0 0 ______P__O__O_ -1 -15.8769 128.719 999 -14.6000 129.600 TC 30 1000 -15.8000 129.000 TC 35 999 6 216
1968051S13139 1968 17 SI WA BERTHA:BONNIE 1968-02-26 09:00:00 TS -15.7699 128.834 main 0 0 ______P__P__P_ -1 -16.0716 128.586 999 -14.8176 129.360 TC 30 1000 -16.0000 128.858 TC 32 999 7 215
1968051S13139 1968 17 SI WA BERTHA:BONNIE 1968-02-26 11:00:00 TS -15.9645 128.694 1000 bom main 0 0 ______O__P__P_ -1 -16.2000 128.500 1000 -14.9409 129.188 TC 30 1000 -16.1364 128.753 TC 30 999 8 213
1968051S13139 1968 17 SI WA BERTHA:BONNIE 1968-02-26 12:00:00 TS -16.1050 128.607 main 0 0 ______P__O__O_ -1 -16.2626 128.459 -15.0000 129.100 TC 30 1000 -16.2000 128.700 TC 30 1000 7 212
1968051S13139 1968 17 SI WA BERTHA:BONNIE 1968-02-26 15:00:00 TS -16.3691 128.432 main 0 0 ______P_____P_ -1 -16.4435 128.343 TC -16.3500 128.542 TC 30 1000 5 214
1968051S13139 1968 17 SI WA BERTHA:BONNIE 1968-02-26 18:00:00 TS -16.5480 128.296 main 0 0 ______P_____O_ -1 -16.6160 128.234 -16.5000 128.400 TC 30 1000 4 213
1968051S13139 1968 17 SI WA BERTHA:BONNIE 1968-02-26 21:00:00 TS -16.7323 128.179 main 0 0 ______P_____P_ -1 -16.7826 128.132 -16.6875 128.290 TC 27 1000 4 211
1968051S13139 1968 17 SI WA BERTHA:BONNIE 1968-02-27 00:00:00 TS -16.9229 128.066 main 0 0 ______P_____O_ -1 -16.9459 128.033 -16.9000 128.200 TC 25 1000 5 213
1968051S13139 1968 17 SI WA BERTHA:BONNIE 1968-02-27 01:00:00 NR -17.0000 128.000 1001 bom main 0 ______O_______ -1 -17.0000 128.000 1001 TC 6 223

デジタル台風データ・検索

IBTrACS Databaseについて

本データベースは、米国NOAAが公開する1842年以降の世界の熱帯低気圧のベストトラックデータアーカイブInternational Best Track Archive for Climate Stewardship (IBTrACS)を、ウェブで閲覧しやすい形式に変換したものです。

最終更新日:2021-11-26